createdAt,value
2018-07-10T00:02:25.037Z,99164.36
2018-07-10T00:07:13.275Z,99160.88
2018-07-10T00:12:04.979Z,99158.85
2018-07-10T00:14:34.967Z,99154.31
2018-07-10T00:17:05.589Z,99152.38
2018-07-10T00:19:35.680Z,99153.19
2018-07-10T00:22:06.109Z,99150.12
2018-07-10T00:24:36.268Z,99152.53
2018-07-10T00:27:06.292Z,99151.65
2018-07-10T00:29:36.888Z,99145.89
2018-07-10T00:32:06.933Z,99144.98
2018-07-10T00:34:37.054Z,99142.22
2018-07-10T00:37:07.265Z,99141.34
2018-07-10T00:39:37.710Z,99141.91
2018-07-10T00:42:08.002Z,99148.48
2018-07-10T00:44:38.303Z,99138.58
2018-07-10T00:47:08.765Z,99135.02
2018-07-10T00:49:38.643Z,99132.82
2018-07-10T00:52:08.719Z,99130.63
2018-07-10T00:54:38.954Z,99134.86
2018-07-10T00:57:09.169Z,99139.81
2018-07-10T00:59:39.870Z,99137.37
2018-07-10T01:02:09.946Z,99136.80
2018-07-10T01:04:40.245Z,99134.15
2018-07-10T01:07:10.394Z,99132.27
2018-07-10T01:09:41.031Z,99137.31
2018-07-10T01:12:10.914Z,99132.47
2018-07-10T01:14:41.149Z,99132.78
2018-07-10T01:17:11.768Z,99134.47
2018-07-10T01:19:42.113Z,99132.87
2018-07-10T01:22:12.509Z,99131.00
2018-07-10T01:24:42.782Z,99125.49
2018-07-10T01:27:13.170Z,99129.41
2018-07-10T01:29:48.616Z,99116.76
2018-07-10T01:32:18.553Z,99120.33
2018-07-10T01:34:49.292Z,99122.98
2018-07-10T01:37:26.416Z,99115.53
2018-07-10T01:39:56.998Z,99119.10
2018-07-10T01:42:27.339Z,99120.95
2018-07-10T01:44:57.485Z,99118.44
2018-07-10T01:47:27.538Z,99123.04
2018-07-10T01:49:58.304Z,99122.41
2018-07-10T01:52:28.535Z,99118.18
2018-07-10T01:54:58.758Z,99115.33
2018-07-10T01:57:29.195Z,99118.58
2018-07-10T01:59:59.474Z,99124.80
2018-07-10T02:02:29.637Z,99114.81
2018-07-10T02:05:00.479Z,99114.98
2018-07-10T02:07:31.885Z,99112.70
2018-07-10T02:10:02.680Z,99117.55
2018-07-10T02:12:32.866Z,99113.41
2018-07-10T02:15:02.653Z,99115.28
2018-07-10T02:17:33.621Z,99117.48
2018-07-10T02:20:04.347Z,99108.86
2018-07-10T02:22:41.125Z,99117.37
2018-07-10T02:25:11.934Z,99111.96
2018-07-10T02:27:42.972Z,99107.90
2018-07-10T02:30:13.418Z,99110.41
2018-07-10T02:32:43.529Z,99110.66
2018-07-10T02:35:14.294Z,99110.66
2018-07-10T02:37:46.350Z,99108.14
2018-07-10T02:40:16.446Z,99113.09
2018-07-10T02:42:46.646Z,99103.45
2018-07-10T02:45:16.803Z,99108.14
2018-07-10T02:47:47.025Z,99105.95
2018-07-10T02:50:17.279Z,99104.89
2018-07-10T02:52:47.213Z,99108.46
2018-07-10T02:55:18.052Z,99113.66
2018-07-10T02:57:48.354Z,99112.59
2018-07-10T03:00:18.738Z,99111.78
2018-07-10T03:02:49.612Z,99107.44
2018-07-10T03:05:21.096Z,99106.94
2018-07-10T03:07:51.187Z,99106.72
2018-07-10T03:10:21.406Z,99112.23
2018-07-10T03:12:52.407Z,99114.49
2018-07-10T03:15:22.570Z,99109.08
2018-07-10T03:17:53.581Z,99114.59
2018-07-10T03:20:23.731Z,99104.23
2018-07-10T03:22:54.422Z,99111.13
2018-07-10T03:25:24.583Z,99106.49
2018-07-10T03:27:54.837Z,99108.19
2018-07-10T03:30:25.009Z,99102.45
2018-07-10T03:32:55.433Z,99102.20
2018-07-10T03:35:25.872Z,99110.47
2018-07-10T03:37:56.532Z,99105.53
2018-07-10T03:40:29.279Z,99101.96
2018-07-10T03:43:00.404Z,99103.34
2018-07-10T03:45:30.549Z,99087.41
2018-07-10T03:48:00.783Z,99103.34
2018-07-10T03:50:33.120Z,99104.72
2018-07-10T03:53:03.766Z,99099.77
2018-07-10T03:55:37.331Z,99099.55
2018-07-10T03:58:08.073Z,99096.80
2018-07-10T04:00:38.390Z,99094.36
2018-07-10T04:03:08.334Z,99098.59
2018-07-10T04:05:38.464Z,99102.47
2018-07-10T04:08:09.656Z,99107.17
2018-07-10T04:10:39.554Z,99103.60
2018-07-10T04:13:15.829Z,99109.67
2018-07-10T04:15:47.713Z,99108.30
2018-07-10T04:18:21.764Z,99106.92
2018-07-10T04:21:12.593Z,99116.00
2018-07-10T04:23:44.429Z,99111.05
2018-07-10T04:26:18.196Z,99107.52
2018-07-10T04:28:57.258Z,99109.45
2018-07-10T04:31:41.128Z,99109.45
2018-07-10T04:34:11.941Z,99099.31
2018-07-10T04:36:42.163Z,99106.77
2018-07-10T04:39:12.241Z,99108.95
2018-07-10T04:41:43.551Z,99106.45
2018-07-10T04:44:14.871Z,99097.06
2018-07-10T04:46:51.029Z,99096.96
2018-07-10T04:49:33.480Z,99100.22
2018-07-10T04:52:16.314Z,99099.97
2018-07-10T04:55:07.779Z,99096.64
2018-07-10T04:57:46.506Z,99103.19
2018-07-10T05:00:16.710Z,99104.72
2018-07-10T05:02:47.717Z,99097.16
2018-07-10T05:05:18.982Z,99092.15
2018-07-10T05:07:49.125Z,99090.59
2018-07-10T05:10:19.660Z,99097.29
2018-07-10T05:12:49.757Z,99091.70
2018-07-10T05:15:20.355Z,99097.69
2018-07-10T05:17:55.668Z,99100.13
2018-07-10T05:20:27.557Z,99098.64
2018-07-10T05:22:57.491Z,99098.54
2018-07-10T05:25:27.782Z,99097.56
2018-07-10T05:27:58.278Z,99089.67
2018-07-10T05:30:29.531Z,99089.26
2018-07-10T05:32:59.754Z,99091.63
2018-07-10T05:35:29.896Z,99082.61
2018-07-10T05:38:04.974Z,99091.20
2018-07-10T05:40:34.991Z,99092.58
2018-07-10T05:43:10.489Z,99090.28
2018-07-10T05:45:40.534Z,99087.77
2018-07-10T05:48:11.335Z,99087.52
2018-07-10T05:50:41.745Z,99087.88
2018-07-10T05:53:12.642Z,99084.63
2018-07-10T05:55:47.231Z,99083.34
2018-07-10T05:58:23.947Z,99087.20
2018-07-10T06:00:54.409Z,99086.11
2018-07-10T06:03:24.790Z,99085.54
2018-07-10T06:05:57.868Z,99080.88
2018-07-10T06:08:28.112Z,99083.17
2018-07-10T06:10:58.408Z,99082.11
2018-07-10T06:13:28.605Z,99082.22
2018-07-10T06:15:58.769Z,99084.16
2018-07-10T06:18:29.766Z,99083.25
2018-07-10T06:21:00.389Z,99084.06
2018-07-10T06:23:36.541Z,99084.16
2018-07-10T06:26:07.655Z,99084.45
2018-07-10T06:28:37.664Z,99097.95
2018-07-10T06:31:13.274Z,99091.09
2018-07-10T06:33:51.280Z,99087.02
2018-07-10T06:36:28.096Z,99082.91
2018-07-10T06:39:15.328Z,99090.89
2018-07-10T06:41:51.656Z,99088.52
2018-07-10T06:44:22.344Z,99089.03
2018-07-10T06:46:55.844Z,99089.52
2018-07-10T06:49:36.814Z,99093.63
2018-07-10T06:52:10.215Z,99094.20
2018-07-10T06:55:21.225Z,99096.23
2018-07-10T06:57:54.329Z,99089.52
2018-07-10T07:00:24.971Z,99087.68
2018-07-10T07:02:55.078Z,99087.68
2018-07-10T07:05:25.339Z,99090.69
2018-07-10T07:07:55.676Z,99091.28
2018-07-10T07:10:26.537Z,99088.24
2018-07-10T07:12:57.394Z,99082.20
2018-07-10T07:15:27.614Z,99075.32
2018-07-10T07:17:57.772Z,99080.20
2018-07-10T07:20:27.866Z,99087.02
2018-07-10T07:22:58.279Z,99081.98
2018-07-10T07:25:28.744Z,99085.23
2018-07-10T07:27:59.754Z,99082.73
2018-07-10T07:30:30.192Z,99080.73
2018-07-10T07:33:00.983Z,99078.09
2018-07-10T07:35:31.346Z,99076.05
2018-07-10T07:38:01.569Z,99078.36
2018-07-10T07:40:31.810Z,99074.69
2018-07-10T07:43:01.859Z,99072.27
2018-07-10T07:45:32.406Z,99069.03
2018-07-10T07:48:02.453Z,99069.20
2018-07-10T07:50:32.611Z,99062.17
2018-07-10T07:53:03.099Z,99063.78
2018-07-10T07:55:34.458Z,99060.75
2018-07-10T07:58:04.873Z,99052.22
2018-07-10T08:00:35.203Z,99049.67
2018-07-10T08:03:05.727Z,99049.88
2018-07-10T08:05:35.810Z,99051.48
2018-07-10T08:08:06.148Z,99059.55
2018-07-10T08:10:36.316Z,99055.87
2018-07-10T08:13:06.603Z,99054.25
2018-07-10T08:15:37.300Z,99053.45
2018-07-10T08:18:07.751Z,99051.59
2018-07-10T08:20:38.345Z,99051.69
2018-07-10T08:23:09.401Z,99048.78
2018-07-10T08:25:39.476Z,99048.88
2018-07-10T08:28:10.897Z,99051.65
2018-07-10T08:30:40.800Z,99043.88
2018-07-10T08:33:11.056Z,99043.06
2018-07-10T08:35:41.213Z,99041.40
2018-07-10T08:38:11.873Z,99035.95
2018-07-10T08:40:41.880Z,99036.75
2018-07-10T08:43:12.088Z,99030.92
2018-07-10T08:45:42.439Z,99036.48
2018-07-10T08:48:17.941Z,99030.09
2018-07-10T08:50:48.213Z,99035.29
2018-07-10T08:53:18.882Z,99030.98
2018-07-10T08:55:49.436Z,99027.16
2018-07-10T08:58:19.785Z,99025.05
2018-07-10T09:00:49.815Z,99025.05
2018-07-10T09:03:20.316Z,99029.44
2018-07-10T09:05:50.526Z,99017.97
2018-07-10T09:08:20.638Z,99022.94
2018-07-10T09:10:51.087Z,99024.80
2018-07-10T09:13:21.370Z,99019.25
2018-07-10T09:15:51.530Z,99019.36
2018-07-10T09:18:21.504Z,99024.22
2018-07-10T09:20:52.636Z,99018.76
2018-07-10T09:23:22.804Z,99019.66
2018-07-10T09:25:57.621Z,99026.30
2018-07-10T09:28:34.696Z,99021.22
2018-07-10T09:31:06.047Z,99018.53
2018-07-10T09:33:36.531Z,99022.11
2018-07-10T09:36:06.905Z,99019.55
2018-07-10T09:38:37.189Z,99017.23
2018-07-10T09:41:08.598Z,99017.09
2018-07-10T09:43:38.805Z,99016.73
2018-07-10T09:46:09.118Z,99019.05
2018-07-10T09:48:39.250Z,99012.61
2018-07-10T09:51:10.082Z,99012.32
2018-07-10T09:53:40.293Z,99010.16
2018-07-10T09:56:11.345Z,99012.27
2018-07-10T09:58:41.599Z,99006.48
2018-07-10T10:01:16.954Z,99010.64
2018-07-10T10:03:47.050Z,99001.16
2018-07-10T10:06:17.866Z,99007.61
2018-07-10T10:08:47.818Z,99009.45
2018-07-10T10:14:14.134Z,99002.47
2018-07-10T10:16:44.568Z,99001.98
2018-07-10T10:19:14.793Z,98997.55
2018-07-10T10:21:45.018Z,98998.41
2018-07-10T10:24:15.272Z,98999.69
2018-07-10T10:26:45.518Z,98990.55
2018-07-10T10:29:15.698Z,98987.31
2018-07-10T10:31:45.849Z,98981.84
2018-07-10T10:34:16.321Z,98986.52
2018-07-10T10:36:47.007Z,98978.88
2018-07-10T10:39:17.438Z,98975.65
2018-07-10T10:41:47.606Z,98966.89
2018-07-10T10:44:17.730Z,98969.59
2018-07-10T10:46:47.947Z,98973.44
2018-07-10T10:49:19.041Z,98967.20
2018-07-10T10:51:49.341Z,98964.89
2018-07-10T10:54:19.584Z,98955.98
2018-07-10T10:56:49.969Z,98963.23
2018-07-10T10:59:20.078Z,98961.66
2018-07-10T11:01:50.215Z,98942.19
2018-07-10T11:04:20.443Z,98953.02
2018-07-10T11:06:50.661Z,98935.01
2018-07-10T11:09:20.790Z,98945.27
2018-07-10T11:11:50.906Z,98953.92
2018-07-10T11:14:21.424Z,98958.00
2018-07-10T11:16:51.851Z,98963.23
2018-07-10T11:19:31.410Z,98965.61
2018-07-10T11:22:06.885Z,98967.55
2018-07-10T11:25:14.547Z,98985.16
2018-07-10T11:28:05.544Z,98983.28
2018-07-10T11:30:36.182Z,98989.71
2018-07-10T11:33:07.366Z,98995.34
2018-07-10T11:35:38.081Z,98997.20
2018-07-10T11:38:11.026Z,99002.78
2018-07-10T11:40:42.997Z,99008.13
2018-07-10T11:43:13.409Z,98981.09
2018-07-10T11:45:43.852Z,98985.72
2018-07-10T11:48:14.138Z,98992.66
2018-07-10T11:50:45.044Z,98996.73
2018-07-10T11:53:15.235Z,99003.08
2018-07-10T11:55:45.295Z,99005.69
2018-07-10T11:58:15.716Z,99013.44
2018-07-10T12:00:45.846Z,99019.25
2018-07-10T12:03:15.821Z,99025.45
2018-07-10T12:05:46.299Z,99046.23
2018-07-10T12:08:16.492Z,99070.59
2018-07-10T12:10:52.506Z,99041.91
2018-07-10T12:13:22.471Z,99040.14
2018-07-10T12:15:52.789Z,99048.25
2018-07-10T12:18:23.310Z,99052.88
2018-07-10T12:20:53.542Z,99065.17
2018-07-10T12:23:23.743Z,99074.59
2018-07-10T12:25:54.024Z,99074.03
2018-07-10T12:28:24.311Z,99066.90
2018-07-10T12:30:54.523Z,99074.50
2018-07-10T12:33:24.631Z,99079.85
2018-07-10T12:35:55.406Z,99086.08
2018-07-10T12:38:25.715Z,99088.98
2018-07-10T12:40:55.951Z,99084.64
2018-07-10T12:43:26.171Z,99086.98
2018-07-10T12:45:56.627Z,99095.89
2018-07-10T12:48:27.035Z,99093.14
2018-07-10T12:50:57.221Z,99096.86
2018-07-10T12:53:27.725Z,99101.70
2018-07-10T12:56:00.576Z,99110.20
2018-07-10T12:58:31.709Z,99106.56
2018-07-10T13:01:01.906Z,99098.70
2018-07-10T13:03:32.147Z,99093.30
2018-07-10T13:06:02.892Z,99092.48
2018-07-10T13:08:33.187Z,99099.36
2018-07-10T13:11:03.468Z,99098.96
2018-07-10T13:13:33.660Z,99100.59
2018-07-10T13:16:03.804Z,99083.42
2018-07-10T13:18:34.633Z,99067.38
2018-07-10T13:21:05.374Z,99066.66
2018-07-10T13:23:35.885Z,99057.13
2018-07-10T13:26:06.089Z,99044.89
2018-07-10T13:28:36.916Z,99037.26
2018-07-10T13:31:07.499Z,99029.97
2018-07-10T13:33:37.934Z,99024.05
2018-07-10T13:36:08.339Z,99016.95
2018-07-10T13:38:38.949Z,99009.27
2018-07-10T13:41:09.500Z,98998.48
2018-07-10T13:43:39.927Z,99004.96
2018-07-10T13:46:10.532Z,99004.96
2018-07-10T13:48:40.981Z,99008.36
2018-07-10T13:51:11.353Z,99009.02
2018-07-10T13:53:41.697Z,99002.54
2018-07-10T13:56:12.303Z,99005.94
2018-07-10T13:58:42.594Z,99005.63
2018-07-10T14:01:12.760Z,99012.17
2018-07-10T14:03:43.252Z,99012.88
2018-07-10T14:06:13.773Z,99011.03
2018-07-10T14:08:44.096Z,99013.61
2018-07-10T14:11:15.014Z,99019.50
2018-07-10T14:13:45.299Z,99025.39
2018-07-10T14:16:16.126Z,99037.82
2018-07-10T14:18:46.703Z,99057.54
2018-07-10T14:21:17.256Z,99060.05
2018-07-10T14:23:47.407Z,99053.00
2018-07-10T14:26:17.624Z,99068.23
2018-07-10T14:28:47.854Z,99075.88
2018-07-10T14:31:18.309Z,99086.77
2018-07-10T14:33:49.214Z,99086.33
2018-07-10T14:36:19.506Z,99089.75
2018-07-10T14:38:49.817Z,99092.70
2018-07-10T14:41:19.729Z,99095.52
2018-07-10T14:43:49.903Z,99099.89
2018-07-10T14:46:22.692Z,99098.45
2018-07-10T14:48:57.354Z,99091.28
2018-07-10T14:51:31.605Z,99090.39
2018-07-10T14:54:01.709Z,99082.33
2018-07-10T14:56:31.758Z,99080.09
2018-07-10T14:59:01.971Z,99084.44
2018-07-10T15:01:32.262Z,99085.33
2018-07-10T15:04:02.530Z,99084.16
2018-07-10T15:06:32.707Z,99086.92
2018-07-10T15:09:02.759Z,99084.44
2018-07-10T15:11:32.721Z,99086.67
2018-07-10T15:14:05.537Z,99080.37
2018-07-10T15:16:40.638Z,99084.19
2018-07-10T15:19:11.302Z,99080.80
2018-07-10T15:21:41.583Z,99074.69
2018-07-10T15:24:11.748Z,99077.39
2018-07-10T15:26:42.361Z,99075.20
2018-07-10T15:29:16.624Z,99071.08
2018-07-10T15:31:46.580Z,99067.19
2018-07-10T15:34:16.731Z,99068.00
2018-07-10T15:36:47.017Z,99071.89
2018-07-10T15:39:17.513Z,99062.22
2018-07-10T15:41:48.328Z,99056.34
2018-07-10T15:44:19.227Z,99051.59
2018-07-10T15:46:49.307Z,99047.41
2018-07-10T15:49:20.134Z,99048.16
2018-07-10T15:51:50.063Z,99043.30
2018-07-10T15:54:20.319Z,99041.22
2018-07-10T15:56:50.337Z,99030.58
2018-07-10T15:59:20.699Z,99023.17
2018-07-10T16:01:50.882Z,99023.91
2018-07-10T16:04:20.940Z,99043.59
2018-07-10T16:06:50.810Z,99052.64
2018-07-10T16:09:21.169Z,99056.20
2018-07-10T16:11:57.083Z,99039.73
2018-07-10T16:14:28.718Z,99026.54
2018-07-10T16:16:58.688Z,99028.58
2018-07-10T16:19:35.322Z,99040.73
2018-07-10T16:22:11.485Z,99040.11
2018-07-10T16:24:46.865Z,99033.94
2018-07-10T16:27:21.845Z,99032.41
2018-07-10T16:29:52.336Z,99033.02
2018-07-10T16:32:22.740Z,99041.88
2018-07-10T16:34:53.563Z,99038.67
2018-07-10T16:37:23.781Z,99032.80
2018-07-10T16:39:54.035Z,99032.72
2018-07-10T16:42:29.018Z,99027.10
2018-07-10T16:44:59.095Z,99028.02
2018-07-10T16:47:33.938Z,99035.78
2018-07-10T16:50:07.046Z,99034.03
2018-07-10T16:52:58.865Z,99041.33
2018-07-10T16:55:29.304Z,99049.73
2018-07-10T16:57:59.559Z,99039.73
2018-07-10T17:00:30.798Z,99046.47
2018-07-10T17:03:00.698Z,99050.43
2018-07-10T17:05:30.872Z,99057.20
2018-07-10T17:08:00.791Z,99063.94
2018-07-10T17:10:31.399Z,99068.53
2018-07-10T17:13:01.726Z,99078.16
2018-07-10T17:15:31.701Z,99087.60
2018-07-10T17:18:02.221Z,99100.69
2018-07-10T17:20:32.389Z,99115.73
2018-07-10T17:23:04.056Z,99126.03
2018-07-10T17:25:34.077Z,99130.79
2018-07-10T17:28:04.218Z,99138.78
2018-07-10T17:30:34.766Z,99136.41
2018-07-10T17:33:04.886Z,99140.91
2018-07-10T17:35:35.203Z,99143.81
2018-07-10T17:38:05.305Z,99140.19
2018-07-10T17:40:35.632Z,99151.92
2018-07-10T17:43:05.666Z,99149.95
2018-07-10T17:45:35.887Z,99146.80
2018-07-10T17:48:06.111Z,99147.99
2018-07-10T17:50:36.616Z,99146.98
2018-07-10T17:53:06.834Z,99152.85
2018-07-10T17:55:37.807Z,99145.24
2018-07-10T17:58:07.907Z,99142.91
2018-07-10T18:00:38.077Z,99150.20
2018-07-10T18:03:09.322Z,99153.61
2018-07-10T18:05:39.607Z,99150.19
2018-07-10T18:08:09.840Z,99149.63
2018-07-10T18:10:40.128Z,99159.72
2018-07-10T18:13:10.603Z,99155.35
2018-07-10T18:15:41.026Z,99154.73
2018-07-10T18:18:11.415Z,99153.36
2018-07-10T18:20:41.831Z,99159.36
2018-07-10T18:23:12.087Z,99154.43
2018-07-10T18:25:42.588Z,99154.69
2018-07-10T18:28:12.426Z,99167.23
2018-07-10T18:30:44.102Z,99167.78
2018-07-10T18:33:14.502Z,99173.83
2018-07-10T18:35:45.141Z,99175.76
2018-07-10T18:38:15.142Z,99178.83
2018-07-10T18:40:45.472Z,99184.35
2018-07-10T18:43:16.022Z,99187.66
2018-07-10T18:45:46.562Z,99184.16
2018-07-10T18:48:21.747Z,99184.23
2018-07-10T18:50:51.945Z,99200.75
2018-07-10T18:53:22.022Z,99185.77
2018-07-10T18:55:53.461Z,99192.98
2018-07-10T18:58:34.048Z,99203.20
2018-07-10T19:01:13.589Z,99206.80
2018-07-10T19:03:46.282Z,99220.88
2018-07-10T19:06:21.021Z,99221.26
2018-07-10T19:08:51.462Z,99229.26
2018-07-10T19:11:27.055Z,99227.10
2018-07-10T19:14:01.393Z,99232.58
2018-07-10T19:16:32.280Z,99238.30
2018-07-10T19:19:04.319Z,99235.56
2018-07-10T19:21:40.186Z,99236.08
2018-07-10T19:24:16.638Z,99237.19
2018-07-10T19:26:48.507Z,99237.25
2018-07-10T19:29:28.600Z,99229.31
2018-07-10T19:31:58.698Z,99232.06
2018-07-10T19:34:28.735Z,99228.63
2018-07-10T19:36:59.596Z,99225.42
2018-07-10T19:39:29.843Z,99230.09
2018-07-10T19:42:00.875Z,99230.34
2018-07-10T19:44:31.850Z,99239.39
2018-07-10T19:47:02.210Z,99238.81
2018-07-10T19:49:34.707Z,99245.38
2018-07-10T19:52:05.420Z,99251.73
2018-07-10T19:54:35.803Z,99256.95
2018-07-10T19:57:06.504Z,99253.13
2018-07-10T19:59:37.299Z,99257.56
2018-07-10T20:02:07.269Z,99254.56
2018-07-10T20:04:47.659Z,99258.15
2018-07-10T20:07:22.227Z,99250.80
2018-07-10T20:09:56.963Z,99249.69
2018-07-10T20:12:39.391Z,99246.13
2018-07-10T20:15:36.492Z,99249.16
2018-07-10T20:18:16.261Z,99245.92
2018-07-10T20:20:56.765Z,99241.81
2018-07-10T20:24:37.722Z,99237.99
2018-07-10T20:27:53.379Z,99236.09
2018-07-10T20:30:31.812Z,99231.70
2018-07-10T20:33:27.653Z,99232.45
2018-07-10T20:36:01.983Z,99233.23
2018-07-10T20:38:32.179Z,99231.52
2018-07-10T20:41:04.145Z,99244.61
2018-07-10T20:43:38.765Z,99241.52
2018-07-10T20:46:11.088Z,99240.91
2018-07-10T20:49:01.371Z,99235.36
2018-07-10T20:51:39.112Z,99240.23
2018-07-10T20:54:16.158Z,99247.90
2018-07-10T20:56:58.014Z,99245.94
2018-07-10T20:59:35.760Z,99249.73
2018-07-10T21:02:09.076Z,99251.63
2018-07-10T21:04:46.796Z,99252.67
2018-07-10T21:07:30.474Z,99265.55
2018-07-10T21:10:11.693Z,99260.55
2018-07-10T21:13:02.223Z,99266.56
2018-07-10T21:15:42.712Z,99266.79
2018-07-10T21:18:37.091Z,99263.49
2018-07-10T21:21:18.184Z,99265.12
2018-07-10T21:23:57.603Z,99262.94
2018-07-10T21:26:35.504Z,99261.83
2018-07-10T21:29:41.685Z,99261.56
2018-07-10T21:32:35.790Z,99260.81
2018-07-10T21:35:09.636Z,99253.76
2018-07-10T21:38:18.630Z,99249.38
2018-07-10T21:41:04.759Z,99250.55
2018-07-10T21:44:44.056Z,99241.56
2018-07-10T21:47:24.333Z,99247.67
2018-07-10T21:49:55.783Z,99239.47
2018-07-10T21:52:25.778Z,99233.44
2018-07-10T21:54:56.241Z,99230.95
2018-07-10T21:57:31.183Z,99228.20
2018-07-10T22:00:04.215Z,99227.33
2018-07-10T22:02:34.126Z,99223.74
2018-07-10T22:05:04.023Z,99221.26
2018-07-10T22:07:34.204Z,99206.41
2018-07-10T22:10:05.542Z,99206.67
2018-07-10T22:12:40.277Z,99197.33
2018-07-10T22:15:10.395Z,99187.41
2018-07-10T22:17:40.481Z,99182.47
2018-07-10T22:20:10.735Z,99182.73
2018-07-10T22:22:40.658Z,99173.39
2018-07-10T22:25:11.122Z,99170.65
2018-07-10T22:27:43.813Z,99165.78
2018-07-10T22:30:21.280Z,99164.45
2018-07-10T22:32:57.462Z,99169.73
2018-07-10T22:35:27.708Z,99164.38
2018-07-10T22:37:58.725Z,99159.81
2018-07-10T22:40:28.947Z,99163.20
2018-07-10T22:42:58.998Z,99172.40
2018-07-10T22:45:30.079Z,99178.27
2018-07-10T22:47:59.911Z,99171.27
2018-07-10T22:50:30.265Z,99168.89
2018-07-10T22:53:01.929Z,99167.61
2018-07-10T22:55:33.104Z,99166.03
2018-07-10T22:58:07.193Z,99166.03
2018-07-10T23:00:38.498Z,99174.52
2018-07-10T23:03:25.090Z,99173.38
2018-07-10T23:05:55.730Z,99173.38
2018-07-10T23:08:31.351Z,99180.75
2018-07-10T23:11:02.496Z,99174.19
2018-07-10T23:13:33.048Z,99179.41
2018-07-10T23:16:02.873Z,99182.73
2018-07-10T23:18:32.589Z,99179.73
2018-07-10T23:21:02.082Z,99177.84
2018-07-10T23:23:31.822Z,99174.55
2018-07-10T23:26:01.426Z,99169.33
2018-07-10T23:28:31.221Z,99164.66
2018-07-10T23:31:00.965Z,99163.03
2018-07-10T23:33:30.524Z,99169.87
2018-07-10T23:36:02.559Z,99165.16
2018-07-10T23:38:39.472Z,99167.34
2018-07-10T23:41:17.001Z,99180.23
2018-07-10T23:43:48.257Z,99173.38
2018-07-10T23:46:30.987Z,99169.03
2018-07-10T23:49:17.136Z,99167.70
2018-07-10T23:51:57.618Z,99157.88
2018-07-10T23:54:27.599Z,99152.95
2018-07-10T23:56:57.810Z,99149.88
2018-07-10T23:59:28.183Z,99146.59
